sensor_id;sensor_type;location;lat;lon;timestamp;P1;durP1;ratioP1;P2;durP2;ratioP2
55692;SDS011;41590;53.366;5.212;2023-03-01T00:01:46;22.77;;;14.68;;
55692;SDS011;41590;53.366;5.212;2023-03-01T00:04:12;27.73;;;15.18;;
55692;SDS011;41590;53.366;5.212;2023-03-01T00:06:38;30.23;;;14.75;;
55692;SDS011;41590;53.366;5.212;2023-03-01T00:09:04;27.30;;;15.30;;
55692;SDS011;41590;53.366;5.212;2023-03-01T00:11:33;26.15;;;14.85;;
55692;SDS011;41590;53.366;5.212;2023-03-01T00:14:00;28.08;;;16.27;;
55692;SDS011;41590;53.366;5.212;2023-03-01T00:16:29;26.90;;;14.68;;
55692;SDS011;41590;53.366;5.212;2023-03-01T00:18:56;28.15;;;15.77;;
55692;SDS011;41590;53.366;5.212;2023-03-01T00:21:24;26.98;;;16.60;;
55692;SDS011;41590;53.366;5.212;2023-03-01T00:23:52;30.80;;;17.60;;
55692;SDS011;41590;53.366;5.212;2023-03-01T00:26:21;27.45;;;17.00;;
55692;SDS011;41590;53.366;5.212;2023-03-01T00:28:48;30.98;;;15.45;;
55692;SDS011;41590;53.366;5.212;2023-03-01T00:31:18;22.67;;;14.60;;
55692;SDS011;41590;53.366;5.212;2023-03-01T00:33:44;30.15;;;14.75;;
55692;SDS011;41590;53.366;5.212;2023-03-01T00:36:12;27.08;;;14.93;;
55692;SDS011;41590;53.366;5.212;2023-03-01T00:38:40;24.40;;;13.73;;
55692;SDS011;41590;53.366;5.212;2023-03-01T00:41:18;26.70;;;14.55;;
55692;SDS011;41590;53.366;5.212;2023-03-01T00:43:46;28.95;;;15.18;;
55692;SDS011;41590;53.366;5.212;2023-03-01T00:46:13;26.60;;;15.93;;
55692;SDS011;41590;53.366;5.212;2023-03-01T00:48:41;25.00;;;15.38;;
55692;SDS011;41590;53.366;5.212;2023-03-01T00:51:09;28.40;;;16.20;;
55692;SDS011;41590;53.366;5.212;2023-03-01T00:53:35;24.08;;;15.15;;
55692;SDS011;41590;53.366;5.212;2023-03-01T00:56:03;26.20;;;15.52;;
55692;SDS011;41590;53.366;5.212;2023-03-01T00:58:29;25.85;;;15.32;;
55692;SDS011;41590;53.366;5.212;2023-03-01T01:00:56;25.52;;;14.73;;
55692;SDS011;41590;53.366;5.212;2023-03-01T01:06:15;25.10;;;14.40;;
55692;SDS011;41590;53.366;5.212;2023-03-01T01:08:42;30.48;;;16.50;;
55692;SDS011;41590;53.366;5.212;2023-03-01T01:11:09;26.50;;;14.10;;
55692;SDS011;41590;53.366;5.212;2023-03-01T01:13:35;27.35;;;15.20;;
55692;SDS011;41590;53.366;5.212;2023-03-01T01:16:04;25.67;;;15.60;;
55692;SDS011;41590;53.366;5.212;2023-03-01T01:18:32;24.50;;;16.02;;
55692;SDS011;41590;53.366;5.212;2023-03-01T01:23:27;31.17;;;17.75;;
55692;SDS011;41590;53.366;5.212;2023-03-01T01:25:53;20.35;;;13.48;;
55692;SDS011;41590;53.366;5.212;2023-03-01T01:28:20;22.13;;;12.50;;
55692;SDS011;41590;53.366;5.212;2023-03-01T01:30:46;19.67;;;12.35;;
55692;SDS011;41590;53.366;5.212;2023-03-01T01:33:13;19.75;;;12.13;;
55692;SDS011;41590;53.366;5.212;2023-03-01T01:35:39;18.80;;;11.60;;
55692;SDS011;41590;53.366;5.212;2023-03-01T01:38:05;19.08;;;11.43;;
55692;SDS011;41590;53.366;5.212;2023-03-01T01:40:32;20.50;;;12.35;;
55692;SDS011;41590;53.366;5.212;2023-03-01T01:42:59;17.77;;;11.10;;
55692;SDS011;41590;53.366;5.212;2023-03-01T01:47:52;20.98;;;13.35;;
55692;SDS011;41590;53.366;5.212;2023-03-01T01:50:18;19.13;;;12.60;;
55692;SDS011;41590;53.366;5.212;2023-03-01T01:52:45;28.10;;;12.70;;
55692;SDS011;41590;53.366;5.212;2023-03-01T01:55:15;20.42;;;12.38;;
55692;SDS011;41590;53.366;5.212;2023-03-01T01:57:48;19.92;;;11.80;;
55692;SDS011;41590;53.366;5.212;2023-03-01T02:00:16;16.50;;;11.77;;
55692;SDS011;41590;53.366;5.212;2023-03-01T02:02:47;19.38;;;11.77;;
55692;SDS011;41590;53.366;5.212;2023-03-01T02:10:43;23.73;;;12.40;;
55692;SDS011;41590;53.366;5.212;2023-03-01T02:13:10;27.33;;;12.77;;
55692;SDS011;41590;53.366;5.212;2023-03-01T02:15:38;23.17;;;11.63;;
55692;SDS011;41590;53.366;5.212;2023-03-01T02:18:05;19.95;;;11.82;;
55692;SDS011;41590;53.366;5.212;2023-03-01T02:20:54;18.90;;;11.48;;
55692;SDS011;41590;53.366;5.212;2023-03-01T02:23:27;19.63;;;10.95;;
55692;SDS011;41590;53.366;5.212;2023-03-01T02:31:18;20.00;;;9.35;;
55692;SDS011;41590;53.366;5.212;2023-03-01T02:34:06;18.42;;;9.80;;
55692;SDS011;41590;53.366;5.212;2023-03-01T02:36:37;13.40;;;8.65;;
55692;SDS011;41590;53.366;5.212;2023-03-01T02:39:05;15.95;;;9.35;;
55692;SDS011;41590;53.366;5.212;2023-03-01T02:41:35;13.98;;;9.73;;
55692;SDS011;41590;53.366;5.212;2023-03-01T02:44:03;17.75;;;10.70;;
55692;SDS011;41590;53.366;5.212;2023-03-01T02:46:29;18.48;;;10.38;;
55692;SDS011;41590;53.366;5.212;2023-03-01T02:48:56;17.45;;;10.18;;
55692;SDS011;41590;53.366;5.212;2023-03-01T02:59:07;15.57;;;9.02;;
55692;SDS011;41590;53.366;5.212;2023-03-01T03:01:34;14.32;;;9.00;;
55692;SDS011;41590;53.366;5.212;2023-03-01T03:04:04;16.30;;;10.38;;
55692;SDS011;41590;53.366;5.212;2023-03-01T03:06:30;14.20;;;10.30;;
55692;SDS011;41590;53.366;5.212;2023-03-01T03:08:56;14.13;;;10.10;;
55692;SDS011;41590;53.366;5.212;2023-03-01T03:11:25;16.38;;;10.65;;
55692;SDS011;41590;53.366;5.212;2023-03-01T03:13:53;15.70;;;10.13;;
55692;SDS011;41590;53.366;5.212;2023-03-01T03:16:33;15.65;;;10.60;;
55692;SDS011;41590;53.366;5.212;2023-03-01T03:19:00;20.60;;;10.20;;
55692;SDS011;41590;53.366;5.212;2023-03-01T03:21:30;16.55;;;9.80;;
55692;SDS011;41590;53.366;5.212;2023-03-01T03:23:57;17.50;;;10.23;;
55692;SDS011;41590;53.366;5.212;2023-03-01T03:26:25;15.75;;;9.95;;
55692;SDS011;41590;53.366;5.212;2023-03-01T03:28:51;16.63;;;9.43;;
55692;SDS011;41590;53.366;5.212;2023-03-01T03:31:19;13.93;;;8.70;;
55692;SDS011;41590;53.366;5.212;2023-03-01T03:34:02;15.43;;;9.30;;
55692;SDS011;41590;53.366;5.212;2023-03-01T03:36:28;18.05;;;9.73;;
55692;SDS011;41590;53.366;5.212;2023-03-01T03:38:55;14.52;;;8.95;;
55692;SDS011;41590;53.366;5.212;2023-03-01T03:41:21;14.30;;;8.80;;
55692;SDS011;41590;53.366;5.212;2023-03-01T03:43:47;20.80;;;10.60;;
55692;SDS011;41590;53.366;5.212;2023-03-01T03:46:13;19.10;;;8.27;;
55692;SDS011;41590;53.366;5.212;2023-03-01T03:48:42;15.55;;;8.55;;
55692;SDS011;41590;53.366;5.212;2023-03-01T03:51:14;20.65;;;9.05;;
55692;SDS011;41590;53.366;5.212;2023-03-01T03:53:42;13.82;;;6.03;;
55692;SDS011;41590;53.366;5.212;2023-03-01T03:56:08;13.52;;;6.15;;
55692;SDS011;41590;53.366;5.212;2023-03-01T03:58:36;12.35;;;7.25;;
55692;SDS011;41590;53.366;5.212;2023-03-01T04:01:03;11.93;;;7.20;;
55692;SDS011;41590;53.366;5.212;2023-03-01T04:03:30;13.85;;;7.65;;
55692;SDS011;41590;53.366;5.212;2023-03-01T04:06:00;14.93;;;6.53;;
55692;SDS011;41590;53.366;5.212;2023-03-01T04:08:27;10.40;;;6.75;;
55692;SDS011;41590;53.366;5.212;2023-03-01T04:11:00;15.82;;;6.00;;
55692;SDS011;41590;53.366;5.212;2023-03-01T04:13:46;11.35;;;5.05;;
55692;SDS011;41590;53.366;5.212;2023-03-01T04:16:13;14.25;;;5.00;;
55692;SDS011;41590;53.366;5.212;2023-03-01T04:18:40;8.65;;;5.15;;
55692;SDS011;41590;53.366;5.212;2023-03-01T04:21:23;11.43;;;5.00;;
55692;SDS011;41590;53.366;5.212;2023-03-01T04:26:32;10.73;;;4.78;;
55692;SDS011;41590;53.366;5.212;2023-03-01T04:29:00;11.13;;;4.65;;
55692;SDS011;41590;53.366;5.212;2023-03-01T04:31:28;9.70;;;4.00;;
55692;SDS011;41590;53.366;5.212;2023-03-01T04:33:55;7.90;;;3.55;;
55692;SDS011;41590;53.366;5.212;2023-03-01T04:36:25;7.53;;;2.92;;
55692;SDS011;41590;53.366;5.212;2023-03-01T04:38:52;9.52;;;3.10;;
55692;SDS011;41590;53.366;5.212;2023-03-01T04:41:19;11.55;;;3.00;;
55692;SDS011;41590;53.366;5.212;2023-03-01T04:43:45;8.93;;;2.85;;
55692;SDS011;41590;53.366;5.212;2023-03-01T04:46:13;6.47;;;2.85;;
55692;SDS011;41590;53.366;5.212;2023-03-01T04:48:41;8.52;;;1.88;;
55692;SDS011;41590;53.366;5.212;2023-03-01T04:51:09;12.07;;;2.10;;
55692;SDS011;41590;53.366;5.212;2023-03-01T04:53:38;4.82;;;2.15;;
55692;SDS011;41590;53.366;5.212;2023-03-01T04:56:05;7.30;;;1.90;;
55692;SDS011;41590;53.366;5.212;2023-03-01T04:58:31;6.00;;;1.70;;
55692;SDS011;41590;53.366;5.212;2023-03-01T05:00:59;8.85;;;2.20;;
55692;SDS011;41590;53.366;5.212;2023-03-01T05:03:26;4.80;;;1.88;;
55692;SDS011;41590;53.366;5.212;2023-03-01T05:05:53;5.05;;;1.67;;
55692;SDS011;41590;53.366;5.212;2023-03-01T05:08:19;7.60;;;1.77;;
55692;SDS011;41590;53.366;5.212;2023-03-01T05:10:51;5.07;;;1.70;;
55692;SDS011;41590;53.366;5.212;2023-03-01T05:15:47;10.40;;;2.40;;
55692;SDS011;41590;53.366;5.212;2023-03-01T05:18:14;8.38;;;2.40;;
55692;SDS011;41590;53.366;5.212;2023-03-01T05:20:41;6.78;;;2.33;;
55692;SDS011;41590;53.366;5.212;2023-03-01T05:23:07;7.53;;;2.35;;
55692;SDS011;41590;53.366;5.212;2023-03-01T05:25:34;5.13;;;1.73;;
55692;SDS011;41590;53.366;5.212;2023-03-01T05:30:50;3.72;;;1.10;;
55692;SDS011;41590;53.366;5.212;2023-03-01T05:33:17;4.25;;;1.27;;
55692;SDS011;41590;53.366;5.212;2023-03-01T05:35:45;4.50;;;1.17;;
55692;SDS011;41590;53.366;5.212;2023-03-01T05:38:14;6.30;;;2.03;;
55692;SDS011;41590;53.366;5.212;2023-03-01T05:40:41;10.68;;;0.93;;
55692;SDS011;41590;53.366;5.212;2023-03-01T05:43:09;6.13;;;1.08;;
55692;SDS011;41590;53.366;5.212;2023-03-01T05:45:39;5.82;;;0.90;;
55692;SDS011;41590;53.366;5.212;2023-03-01T05:48:07;4.45;;;1.15;;
55692;SDS011;41590;53.366;5.212;2023-03-01T05:50:36;5.68;;;0.95;;
55692;SDS011;41590;53.366;5.212;2023-03-01T05:53:05;7.85;;;0.95;;
55692;SDS011;41590;53.366;5.212;2023-03-01T05:55:35;6.65;;;1.45;;
55692;SDS011;41590;53.366;5.212;2023-03-01T05:58:02;4.95;;;1.23;;
55692;SDS011;41590;53.366;5.212;2023-03-01T06:00:31;8.02;;;1.20;;
55692;SDS011;41590;53.366;5.212;2023-03-01T06:02:58;8.18;;;0.88;;
55692;SDS011;41590;53.366;5.212;2023-03-01T06:05:29;11.30;;;1.30;;
55692;SDS011;41590;53.366;5.212;2023-03-01T06:07:56;4.70;;;1.27;;
55692;SDS011;41590;53.366;5.212;2023-03-01T06:10:25;7.20;;;1.27;;
55692;SDS011;41590;53.366;5.212;2023-03-01T06:12:51;7.00;;;1.20;;
55692;SDS011;41590;53.366;5.212;2023-03-01T06:15:18;8.13;;;1.40;;
55692;SDS011;41590;53.366;5.212;2023-03-01T06:17:45;6.68;;;1.20;;
55692;SDS011;41590;53.366;5.212;2023-03-01T06:20:15;12.77;;;1.30;;
55692;SDS011;41590;53.366;5.212;2023-03-01T06:22:42;7.45;;;1.60;;
55692;SDS011;41590;53.366;5.212;2023-03-01T06:25:08;4.45;;;1.20;;
55692;SDS011;41590;53.366;5.212;2023-03-01T06:27:39;6.13;;;1.10;;
55692;SDS011;41590;53.366;5.212;2023-03-01T06:30:07;7.90;;;1.08;;
55692;SDS011;41590;53.366;5.212;2023-03-01T06:32:35;9.10;;;1.20;;
55692;SDS011;41590;53.366;5.212;2023-03-01T06:35:01;5.30;;;1.00;;
55692;SDS011;41590;53.366;5.212;2023-03-01T06:37:30;7.10;;;1.00;;
55692;SDS011;41590;53.366;5.212;2023-03-01T06:39:56;7.30;;;1.85;;
55692;SDS011;41590;53.366;5.212;2023-03-01T06:42:22;8.40;;;1.00;;
55692;SDS011;41590;53.366;5.212;2023-03-01T06:44:49;9.00;;;1.50;;
55692;SDS011;41590;53.366;5.212;2023-03-01T06:47:15;7.82;;;1.02;;
55692;SDS011;41590;53.366;5.212;2023-03-01T06:49:43;12.57;;;1.15;;
55692;SDS011;41590;53.366;5.212;2023-03-01T06:52:09;5.78;;;0.98;;
55692;SDS011;41590;53.366;5.212;2023-03-01T06:54:38;11.15;;;1.00;;
55692;SDS011;41590;53.366;5.212;2023-03-01T06:57:05;11.65;;;1.23;;
55692;SDS011;41590;53.366;5.212;2023-03-01T06:59:31;5.68;;;1.00;;
55692;SDS011;41590;53.366;5.212;2023-03-01T07:01:57;1.85;;;0.57;;
55692;SDS011;41590;53.366;5.212;2023-03-01T07:04:23;6.68;;;0.95;;
55692;SDS011;41590;53.366;5.212;2023-03-01T07:09:22;4.35;;;0.90;;
55692;SDS011;41590;53.366;5.212;2023-03-01T07:11:48;6.20;;;1.15;;
55692;SDS011;41590;53.366;5.212;2023-03-01T07:14:14;6.03;;;1.40;;
55692;SDS011;41590;53.366;5.212;2023-03-01T07:16:40;4.13;;;0.80;;
55692;SDS011;41590;53.366;5.212;2023-03-01T07:19:08;5.40;;;0.82;;
55692;SDS011;41590;53.366;5.212;2023-03-01T07:21:34;3.95;;;1.00;;
55692;SDS011;41590;53.366;5.212;2023-03-01T07:24:01;7.30;;;1.00;;
55692;SDS011;41590;53.366;5.212;2023-03-01T07:26:28;6.65;;;1.13;;
55692;SDS011;41590;53.366;5.212;2023-03-01T07:28:54;7.40;;;0.90;;
55692;SDS011;41590;53.366;5.212;2023-03-01T07:31:20;13.82;;;1.40;;
55692;SDS011;41590;53.366;5.212;2023-03-01T07:33:46;4.07;;;1.00;;
55692;SDS011;41590;53.366;5.212;2023-03-01T07:36:14;7.18;;;1.25;;
55692;SDS011;41590;53.366;5.212;2023-03-01T07:38:41;4.50;;;1.02;;
55692;SDS011;41590;53.366;5.212;2023-03-01T07:41:13;4.07;;;0.85;;
55692;SDS011;41590;53.366;5.212;2023-03-01T07:43:39;6.93;;;1.08;;
55692;SDS011;41590;53.366;5.212;2023-03-01T07:49:29;4.25;;;1.70;;
55692;SDS011;41590;53.366;5.212;2023-03-01T07:51:58;10.73;;;1.00;;
55692;SDS011;41590;53.366;5.212;2023-03-01T07:54:25;8.38;;;1.30;;
55692;SDS011;41590;53.366;5.212;2023-03-01T07:56:53;5.40;;;1.10;;
55692;SDS011;41590;53.366;5.212;2023-03-01T07:59:19;8.90;;;1.17;;
55692;SDS011;41590;53.366;5.212;2023-03-01T08:01:48;4.00;;;1.17;;
55692;SDS011;41590;53.366;5.212;2023-03-01T08:04:16;6.82;;;1.10;;
55692;SDS011;41590;53.366;5.212;2023-03-01T08:06:44;6.72;;;1.00;;
55692;SDS011;41590;53.366;5.212;2023-03-01T08:09:12;4.40;;;1.15;;
55692;SDS011;41590;53.366;5.212;2023-03-01T08:11:39;3.40;;;0.80;;
55692;SDS011;41590;53.366;5.212;2023-03-01T08:14:07;2.78;;;0.70;;
55692;SDS011;41590;53.366;5.212;2023-03-01T08:16:35;6.15;;;1.00;;
55692;SDS011;41590;53.366;5.212;2023-03-01T08:19:08;7.55;;;2.25;;
55692;SDS011;41590;53.366;5.212;2023-03-01T08:21:36;2.45;;;0.93;;
55692;SDS011;41590;53.366;5.212;2023-03-01T08:24:05;5.55;;;0.70;;
55692;SDS011;41590;53.366;5.212;2023-03-01T08:26:32;6.38;;;0.90;;
55692;SDS011;41590;53.366;5.212;2023-03-01T08:28:59;10.90;;;1.38;;
55692;SDS011;41590;53.366;5.212;2023-03-01T08:31:33;8.85;;;3.08;;
55692;SDS011;41590;53.366;5.212;2023-03-01T08:34:04;4.80;;;0.90;;
55692;SDS011;41590;53.366;5.212;2023-03-01T08:36:33;5.05;;;1.20;;
55692;SDS011;41590;53.366;5.212;2023-03-01T08:39:04;4.15;;;0.88;;
55692;SDS011;41590;53.366;5.212;2023-03-01T08:41:33;4.60;;;0.75;;
55692;SDS011;41590;53.366;5.212;2023-03-01T08:44:01;7.22;;;1.05;;
55692;SDS011;41590;53.366;5.212;2023-03-01T08:46:28;5.82;;;2.38;;
55692;SDS011;41590;53.366;5.212;2023-03-01T08:48:57;11.23;;;2.38;;
55692;SDS011;41590;53.366;5.212;2023-03-01T08:54:20;6.25;;;2.05;;
55692;SDS011;41590;53.366;5.212;2023-03-01T08:56:47;12.55;;;2.88;;
55692;SDS011;41590;53.366;5.212;2023-03-01T08:59:16;7.43;;;2.70;;
55692;SDS011;41590;53.366;5.212;2023-03-01T09:01:43;7.28;;;2.72;;
55692;SDS011;41590;53.366;5.212;2023-03-01T09:04:09;7.28;;;2.45;;
55692;SDS011;41590;53.366;5.212;2023-03-01T09:06:37;9.48;;;2.78;;
55692;SDS011;41590;53.366;5.212;2023-03-01T09:09:07;8.82;;;2.35;;
55692;SDS011;41590;53.366;5.212;2023-03-01T09:11:39;8.52;;;2.88;;
55692;SDS011;41590;53.366;5.212;2023-03-01T09:14:07;10.27;;;4.38;;
55692;SDS011;41590;53.366;5.212;2023-03-01T09:16:35;8.63;;;3.30;;
55692;SDS011;41590;53.366;5.212;2023-03-01T09:19:01;8.90;;;4.43;;
55692;SDS011;41590;53.366;5.212;2023-03-01T09:21:34;12.25;;;6.20;;
55692;SDS011;41590;53.366;5.212;2023-03-01T09:24:00;8.73;;;4.82;;
55692;SDS011;41590;53.366;5.212;2023-03-01T09:26:29;7.78;;;5.13;;
55692;SDS011;41590;53.366;5.212;2023-03-01T09:28:58;10.90;;;4.30;;
55692;SDS011;41590;53.366;5.212;2023-03-01T09:31:25;10.98;;;7.28;;
55692;SDS011;41590;53.366;5.212;2023-03-01T09:33:51;10.18;;;5.07;;
55692;SDS011;41590;53.366;5.212;2023-03-01T09:36:21;11.57;;;6.63;;
55692;SDS011;41590;53.366;5.212;2023-03-01T09:38:49;14.35;;;8.00;;
55692;SDS011;41590;53.366;5.212;2023-03-01T09:43:56;13.80;;;9.88;;
55692;SDS011;41590;53.366;5.212;2023-03-01T09:46:25;14.65;;;9.25;;
55692;SDS011;41590;53.366;5.212;2023-03-01T09:49:00;22.13;;;12.63;;
55692;SDS011;41590;53.366;5.212;2023-03-01T09:51:32;21.20;;;12.27;;
55692;SDS011;41590;53.366;5.212;2023-03-01T09:54:00;18.65;;;11.18;;
55692;SDS011;41590;53.366;5.212;2023-03-01T09:56:32;14.20;;;10.15;;
55692;SDS011;41590;53.366;5.212;2023-03-01T10:06:34;14.05;;;9.43;;
55692;SDS011;41590;53.366;5.212;2023-03-01T10:09:09;15.27;;;9.18;;
55692;SDS011;41590;53.366;5.212;2023-03-01T10:17:19;12.13;;;7.85;;
55692;SDS011;41590;53.366;5.212;2023-03-01T10:19:46;12.45;;;8.18;;
55692;SDS011;41590;53.366;5.212;2023-03-01T10:24:43;14.57;;;10.15;;
55692;SDS011;41590;53.366;5.212;2023-03-01T10:27:56;16.35;;;7.85;;
55692;SDS011;41590;53.366;5.212;2023-03-01T10:32:48;9.48;;;7.43;;
55692;SDS011;41590;53.366;5.212;2023-03-01T10:35:19;16.48;;;10.20;;
55692;SDS011;41590;53.366;5.212;2023-03-01T10:38:07;13.88;;;7.60;;
55692;SDS011;41590;53.366;5.212;2023-03-01T10:40:32;8.45;;;6.05;;
55692;SDS011;41590;53.366;5.212;2023-03-01T10:43:03;11.55;;;7.15;;
55692;SDS011;41590;53.366;5.212;2023-03-01T10:48:13;10.95;;;5.72;;
55692;SDS011;41590;53.366;5.212;2023-03-01T10:50:48;9.80;;;5.85;;
55692;SDS011;41590;53.366;5.212;2023-03-01T10:53:22;7.90;;;4.22;;
55692;SDS011;41590;53.366;5.212;2023-03-01T10:58:27;8.25;;;5.43;;
55692;SDS011;41590;53.366;5.212;2023-03-01T11:01:05;7.47;;;2.90;;
55692;SDS011;41590;53.366;5.212;2023-03-01T11:03:36;6.13;;;3.10;;
55692;SDS011;41590;53.366;5.212;2023-03-01T11:08:44;6.60;;;2.80;;
55692;SDS011;41590;53.366;5.212;2023-03-01T11:11:29;6.30;;;3.55;;
55692;SDS011;41590;53.366;5.212;2023-03-01T11:14:03;4.30;;;2.50;;
55692;SDS011;41590;53.366;5.212;2023-03-01T11:16:40;7.28;;;4.10;;
55692;SDS011;41590;53.366;5.212;2023-03-01T11:21:39;5.32;;;3.63;;
55692;SDS011;41590;53.366;5.212;2023-03-01T11:24:06;7.75;;;3.97;;
55692;SDS011;41590;53.366;5.212;2023-03-01T11:26:36;7.40;;;4.00;;
55692;SDS011;41590;53.366;5.212;2023-03-01T11:29:05;8.43;;;4.75;;
55692;SDS011;41590;53.366;5.212;2023-03-01T11:31:32;8.73;;;4.35;;
55692;SDS011;41590;53.366;5.212;2023-03-01T11:34:05;8.88;;;5.38;;
55692;SDS011;41590;53.366;5.212;2023-03-01T11:39:36;9.85;;;5.90;;
55692;SDS011;41590;53.366;5.212;2023-03-01T11:42:11;12.38;;;8.05;;
55692;SDS011;41590;53.366;5.212;2023-03-01T11:44:41;8.15;;;4.38;;
55692;SDS011;41590;53.366;5.212;2023-03-01T11:52:41;7.60;;;4.70;;
55692;SDS011;41590;53.366;5.212;2023-03-01T11:55:17;8.07;;;4.90;;
55692;SDS011;41590;53.366;5.212;2023-03-01T11:57:54;7.22;;;4.55;;
55692;SDS011;41590;53.366;5.212;2023-03-01T12:05:52;8.10;;;5.22;;
55692;SDS011;41590;53.366;5.212;2023-03-01T12:28:44;6.28;;;3.72;;
55692;SDS011;41590;53.366;5.212;2023-03-01T12:31:11;6.30;;;3.60;;
55692;SDS011;41590;53.366;5.212;2023-03-01T12:38:50;5.90;;;4.35;;
55692;SDS011;41590;53.366;5.212;2023-03-01T12:51:14;7.90;;;5.00;;
55692;SDS011;41590;53.366;5.212;2023-03-01T12:53:47;3.50;;;2.42;;
55692;SDS011;41590;53.366;5.212;2023-03-01T12:56:15;5.43;;;1.85;;
55692;SDS011;41590;53.366;5.212;2023-03-01T13:01:40;4.50;;;2.25;;
55692;SDS011;41590;53.366;5.212;2023-03-01T13:06:54;5.10;;;2.53;;
55692;SDS011;41590;53.366;5.212;2023-03-01T13:14:56;4.32;;;2.75;;
55692;SDS011;41590;53.366;5.212;2023-03-01T13:17:40;3.72;;;2.50;;
55692;SDS011;41590;53.366;5.212;2023-03-01T13:20:15;2.78;;;2.53;;
55692;SDS011;41590;53.366;5.212;2023-03-01T13:22:41;5.15;;;2.85;;
55692;SDS011;41590;53.366;5.212;2023-03-01T13:25:18;4.72;;;2.30;;
55692;SDS011;41590;53.366;5.212;2023-03-01T13:27:45;5.05;;;3.53;;
55692;SDS011;41590;53.366;5.212;2023-03-01T13:30:46;5.75;;;3.90;;
55692;SDS011;41590;53.366;5.212;2023-03-01T13:35:53;6.80;;;4.00;;
55692;SDS011;41590;53.366;5.212;2023-03-01T13:41:10;8.48;;;5.55;;
55692;SDS011;41590;53.366;5.212;2023-03-01T13:43:38;9.65;;;4.82;;
55692;SDS011;41590;53.366;5.212;2023-03-01T13:46:23;8.80;;;5.60;;
55692;SDS011;41590;53.366;5.212;2023-03-01T13:48:52;7.55;;;6.28;;
55692;SDS011;41590;53.366;5.212;2023-03-01T13:51:27;7.35;;;5.63;;
55692;SDS011;41590;53.366;5.212;2023-03-01T13:53:56;7.55;;;5.40;;
55692;SDS011;41590;53.366;5.212;2023-03-01T14:01:29;8.63;;;6.45;;
55692;SDS011;41590;53.366;5.212;2023-03-01T14:03:56;6.75;;;5.82;;
55692;SDS011;41590;53.366;5.212;2023-03-01T14:06:26;10.80;;;6.68;;
55692;SDS011;41590;53.366;5.212;2023-03-01T14:09:05;6.93;;;5.50;;
55692;SDS011;41590;53.366;5.212;2023-03-01T14:19:27;8.13;;;6.03;;
55692;SDS011;41590;53.366;5.212;2023-03-01T14:24:32;9.05;;;6.65;;
55692;SDS011;41590;53.366;5.212;2023-03-01T14:27:03;11.82;;;8.00;;
55692;SDS011;41590;53.366;5.212;2023-03-01T14:29:35;9.27;;;7.43;;
55692;SDS011;41590;53.366;5.212;2023-03-01T14:34:47;13.05;;;7.70;;
55692;SDS011;41590;53.366;5.212;2023-03-01T14:37:27;8.35;;;7.05;;
55692;SDS011;41590;53.366;5.212;2023-03-01T14:39:54;7.95;;;6.90;;
55692;SDS011;41590;53.366;5.212;2023-03-01T14:42:22;10.15;;;9.05;;
55692;SDS011;41590;53.366;5.212;2023-03-01T14:44:52;9.68;;;7.22;;
55692;SDS011;41590;53.366;5.212;2023-03-01T14:47:28;11.10;;;8.65;;
55692;SDS011;41590;53.366;5.212;2023-03-01T14:50:07;10.07;;;8.93;;
55692;SDS011;41590;53.366;5.212;2023-03-01T14:52:39;10.43;;;8.63;;
55692;SDS011;41590;53.366;5.212;2023-03-01T14:55:18;14.27;;;9.55;;
55692;SDS011;41590;53.366;5.212;2023-03-01T14:57:49;12.10;;;8.80;;
55692;SDS011;41590;53.366;5.212;2023-03-01T15:00:26;9.20;;;5.80;;
55692;SDS011;41590;53.366;5.212;2023-03-01T15:02:54;19.85;;;7.82;;
55692;SDS011;41590;53.366;5.212;2023-03-01T15:05:26;17.38;;;8.13;;
55692;SDS011;41590;53.366;5.212;2023-03-01T15:07:54;13.38;;;8.00;;
55692;SDS011;41590;53.366;5.212;2023-03-01T15:10:22;12.20;;;7.75;;
55692;SDS011;41590;53.366;5.212;2023-03-01T15:12:50;13.20;;;8.13;;
55692;SDS011;41590;53.366;5.212;2023-03-01T15:20:52;14.27;;;6.43;;
55692;SDS011;41590;53.366;5.212;2023-03-01T15:23:26;13.60;;;7.03;;
55692;SDS011;41590;53.366;5.212;2023-03-01T15:25:54;12.43;;;6.63;;
55692;SDS011;41590;53.366;5.212;2023-03-01T15:34:36;11.43;;;5.97;;
55692;SDS011;41590;53.366;5.212;2023-03-01T15:37:05;14.30;;;5.90;;
55692;SDS011;41590;53.366;5.212;2023-03-01T15:39:38;20.08;;;6.82;;
55692;SDS011;41590;53.366;5.212;2023-03-01T15:42:05;18.38;;;6.28;;
55692;SDS011;41590;53.366;5.212;2023-03-01T15:44:33;18.52;;;6.90;;
55692;SDS011;41590;53.366;5.212;2023-03-01T15:47:00;11.65;;;6.50;;
55692;SDS011;41590;53.366;5.212;2023-03-01T15:49:41;13.43;;;8.50;;
55692;SDS011;41590;53.366;5.212;2023-03-01T15:52:12;13.63;;;7.53;;
55692;SDS011;41590;53.366;5.212;2023-03-01T15:54:39;10.23;;;6.72;;
55692;SDS011;41590;53.366;5.212;2023-03-01T15:57:10;12.48;;;7.38;;
55692;SDS011;41590;53.366;5.212;2023-03-01T15:59:38;10.80;;;7.50;;
55692;SDS011;41590;53.366;5.212;2023-03-01T16:02:11;17.13;;;7.53;;
55692;SDS011;41590;53.366;5.212;2023-03-01T16:04:40;18.38;;;9.27;;
55692;SDS011;41590;53.366;5.212;2023-03-01T16:07:08;12.27;;;7.07;;
55692;SDS011;41590;53.366;5.212;2023-03-01T16:09:35;11.75;;;7.85;;
55692;SDS011;41590;53.366;5.212;2023-03-01T16:12:01;14.93;;;7.53;;
55692;SDS011;41590;53.366;5.212;2023-03-01T16:14:27;14.80;;;8.63;;
55692;SDS011;41590;53.366;5.212;2023-03-01T16:16:53;14.32;;;8.45;;
55692;SDS011;41590;53.366;5.212;2023-03-01T16:19:20;11.63;;;8.45;;
55692;SDS011;41590;53.366;5.212;2023-03-01T16:21:46;13.70;;;7.78;;
55692;SDS011;41590;53.366;5.212;2023-03-01T16:24:14;13.00;;;7.95;;
55692;SDS011;41590;53.366;5.212;2023-03-01T16:26:44;14.50;;;8.65;;
55692;SDS011;41590;53.366;5.212;2023-03-01T16:29:10;10.93;;;7.35;;
55692;SDS011;41590;53.366;5.212;2023-03-01T16:31:49;11.93;;;7.07;;
55692;SDS011;41590;53.366;5.212;2023-03-01T16:34:16;12.95;;;7.30;;
55692;SDS011;41590;53.366;5.212;2023-03-01T16:36:43;11.38;;;6.45;;
55692;SDS011;41590;53.366;5.212;2023-03-01T16:39:08;10.70;;;6.53;;
55692;SDS011;41590;53.366;5.212;2023-03-01T16:41:35;10.30;;;7.10;;
55692;SDS011;41590;53.366;5.212;2023-03-01T16:44:02;12.70;;;5.97;;
55692;SDS011;41590;53.366;5.212;2023-03-01T16:46:29;14.32;;;7.68;;
55692;SDS011;41590;53.366;5.212;2023-03-01T16:48:55;23.50;;;8.82;;
55692;SDS011;41590;53.366;5.212;2023-03-01T16:51:22;16.58;;;9.07;;
55692;SDS011;41590;53.366;5.212;2023-03-01T16:53:49;13.35;;;7.20;;
55692;SDS011;41590;53.366;5.212;2023-03-01T16:56:19;15.02;;;7.72;;
55692;SDS011;41590;53.366;5.212;2023-03-01T16:58:46;13.50;;;7.90;;
55692;SDS011;41590;53.366;5.212;2023-03-01T17:01:14;27.30;;;11.20;;
55692;SDS011;41590;53.366;5.212;2023-03-01T17:03:46;16.73;;;9.27;;
55692;SDS011;41590;53.366;5.212;2023-03-01T17:06:15;15.50;;;9.48;;
55692;SDS011;41590;53.366;5.212;2023-03-01T17:08:45;14.57;;;8.13;;
55692;SDS011;41590;53.366;5.212;2023-03-01T17:11:14;14.95;;;7.35;;
55692;SDS011;41590;53.366;5.212;2023-03-01T17:13:42;14.20;;;7.65;;
55692;SDS011;41590;53.366;5.212;2023-03-01T17:16:10;20.70;;;9.32;;
55692;SDS011;41590;53.366;5.212;2023-03-01T17:18:39;17.60;;;10.57;;
55692;SDS011;41590;53.366;5.212;2023-03-01T17:21:06;21.38;;;10.38;;
55692;SDS011;41590;53.366;5.212;2023-03-01T17:23:35;29.80;;;18.35;;
55692;SDS011;41590;53.366;5.212;2023-03-01T17:26:02;19.52;;;10.02;;
55692;SDS011;41590;53.366;5.212;2023-03-01T17:28:29;23.92;;;11.40;;
55692;SDS011;41590;53.366;5.212;2023-03-01T17:30:57;11.20;;;7.22;;
55692;SDS011;41590;53.366;5.212;2023-03-01T17:33:24;16.83;;;10.00;;
55692;SDS011;41590;53.366;5.212;2023-03-01T17:35:55;14.75;;;9.27;;
55692;SDS011;41590;53.366;5.212;2023-03-01T17:38:23;24.35;;;14.63;;
55692;SDS011;41590;53.366;5.212;2023-03-01T17:40:48;20.27;;;10.38;;